Time;durP1;ratioP1;P1;durP2;ratioP2;P2;SDS_P1;SDS_P2;PMS_P1;PMS_P2;Temp;Humidity;BMP_temperature;BMP_pressure;BME280_temperature;BME280_humidity;BME280_pressure;Samples;Min_cycle;Max_cycle;Signal;HPM_P1;HPM_P2
2023/10/29 00:01:16;;;;;;;1.20;1.02;;;;;;;;;;10449741;28;20219;-75
2023/10/29 00:06:17;;;;;;;2.30;1.60;;;;;;;;;;10456072;28;20295;-73
2023/10/29 00:11:18;;;;;;;2.05;1.85;;;;;;;;;;10423760;28;20229;-75
2023/10/29 00:16:19;;;;;;;2.35;1.35;;;;;;;;;;10455072;28;20639;-77
2023/10/29 00:21:20;;;;;;;1.30;1.30;;;;;;;;;;10454840;28;20210;-74
2023/10/29 00:26:21;;;;;;;6.22;1.58;;;;;;;;;;10438948;28;20230;-76
2023/10/29 00:31:24;;;;;;;1.58;1.48;;;;;;;;;;10450614;28;20225;-77
2023/10/29 00:36:26;;;;;;;6.68;0.90;;;;;;;;;;10455799;28;20312;-74
2023/10/29 00:41:28;;;;;;;1.45;1.35;;;;;;;;;;10441885;28;20298;-76
2023/10/29 00:46:29;;;;;;;4.28;1.05;;;;;;;;;;10474751;28;20214;-79
2023/10/29 00:51:30;;;;;;;1.77;1.17;;;;;;;;;;10461970;28;20233;-78
2023/10/29 00:56:31;;;;;;;3.22;0.90;;;;;;;;;;10464117;28;20218;-76
2023/10/29 01:01:33;;;;;;;2.70;0.77;;;;;;;;;;10444445;28;20217;-76
2023/10/29 01:06:40;;;;;;;1.90;1.38;;;;;;;;;;10465747;28;20219;-74
2023/10/29 01:11:42;;;;;;;0.85;0.85;;;;;;;;;;10467590;28;20210;-76
2023/10/29 01:16:43;;;;;;;1.00;0.73;;;;;;;;;;10464506;28;20225;-78
2023/10/29 01:21:44;;;;;;;1.52;0.60;;;;;;;;;;10476705;28;20229;-79
2023/10/29 01:26:45;;;;;;;2.53;0.80;;;;;;;;;;10453549;28;20240;-75
2023/10/29 01:31:49;;;;;;;1.67;0.70;;;;;;;;;;10438556;28;20206;-75
2023/10/29 01:36:50;;;;;;;4.05;0.63;;;;;;;;;;10446244;28;20218;-76
2023/10/29 01:41:55;;;;;;;0.70;0.68;;;;;;;;;;10464417;28;20634;-75
2023/10/29 01:46:56;;;;;;;3.00;1.00;;;;;;;;;;10458004;28;20877;-76
2023/10/29 01:51:57;;;;;;;1.40;0.98;;;;;;;;;;10464270;28;20230;-77
2023/10/29 01:56:58;;;;;;;2.25;1.00;;;;;;;;;;10440137;28;20225;-75
2023/10/29 02:02:00;;;;;;;1.67;0.90;;;;;;;;;;10443559;28;21126;-74
2023/10/29 02:07:01;;;;;;;1.95;1.17;;;;;;;;;;10461452;28;20213;-79
2023/10/29 02:12:02;;;;;;;1.35;0.80;;;;;;;;;;10423509;28;20217;-78
2023/10/29 02:17:03;;;;;;;2.20;0.98;;;;;;;;;;10441688;28;20273;-76
2023/10/29 02:22:04;;;;;;;1.98;0.75;;;;;;;;;;10430058;28;20209;-75
2023/10/29 02:27:05;;;;;;;1.10;1.02;;;;;;;;;;10461070;28;20774;-77
2023/10/29 02:32:07;;;;;;;2.42;0.75;;;;;;;;;;10438874;28;20219;-76
2023/10/29 02:37:08;;;;;;;0.90;0.73;;;;;;;;;;10451137;28;20210;-77
2023/10/29 02:42:14;;;;;;;3.10;1.48;;;;;;;;;;10446634;28;20210;-75
2023/10/29 02:47:16;;;;;;;1.67;0.73;;;;;;;;;;10457808;28;20724;-77
2023/10/29 02:52:17;;;;;;;2.30;1.38;;;;;;;;;;10457878;28;20209;-75
2023/10/29 02:57:18;;;;;;;1.10;1.00;;;;;;;;;;10442812;28;20210;-76
2023/10/29 03:02:19;;;;;;;0.73;0.73;;;;;;;;;;10446039;28;20197;-75
2023/10/29 03:07:20;;;;;;;2.50;1.00;;;;;;;;;;10461292;28;20601;-79
2023/10/29 03:12:21;;;;;;;3.10;0.93;;;;;;;;;;10443506;28;20695;-76
2023/10/29 03:17:22;;;;;;;1.35;0.90;;;;;;;;;;10461068;28;21521;-75
2023/10/29 03:22:23;;;;;;;1.58;0.85;;;;;;;;;;10434618;28;20423;-77
2023/10/29 03:27:24;;;;;;;0.80;0.80;;;;;;;;;;10453481;28;20234;-75
2023/10/29 03:32:25;;;;;;;0.90;0.90;;;;;;;;;;10460502;28;20699;-75
2023/10/29 03:37:26;;;;;;;1.13;0.77;;;;;;;;;;10463352;28;20862;-75
2023/10/29 03:42:27;;;;;;;0.90;0.90;;;;;;;;;;10439258;28;20281;-74
2023/10/29 03:47:28;;;;;;;2.35;1.05;;;;;;;;;;10442728;28;20210;-76
2023/10/29 03:52:29;;;;;;;3.50;0.88;;;;;;;;;;10462632;28;20212;-78
2023/10/29 03:57:30;;;;;;;3.55;0.70;;;;;;;;;;10446149;28;20222;-77
2023/10/29 04:02:31;;;;;;;1.15;0.85;;;;;;;;;;10420179;28;20214;-77
2023/10/29 04:07:32;;;;;;;1.95;0.90;;;;;;;;;;10442833;28;20220;-77
2023/10/29 04:12:34;;;;;;;1.20;0.80;;;;;;;;;;10455897;28;20660;-78
2023/10/29 04:17:35;;;;;;;1.73;0.80;;;;;;;;;;10461009;28;20306;-76
2023/10/29 04:22:37;;;;;;;0.88;0.88;;;;;;;;;;10470650;28;20217;-79
2023/10/29 04:27:38;;;;;;;0.82;0.75;;;;;;;;;;10464511;28;21455;-74
2023/10/29 04:32:39;;;;;;;1.92;0.60;;;;;;;;;;10471135;28;20203;-75
2023/10/29 04:37:40;;;;;;;1.58;0.80;;;;;;;;;;10465464;28;20218;-79
2023/10/29 04:42:41;;;;;;;2.15;0.70;;;;;;;;;;10466695;28;20218;-79
2023/10/29 04:47:42;;;;;;;4.80;0.82;;;;;;;;;;10476088;28;20226;-79
2023/10/29 04:52:43;;;;;;;1.55;0.82;;;;;;;;;;10447911;28;20222;-77
2023/10/29 04:57:44;;;;;;;1.02;0.90;;;;;;;;;;10473915;28;20252;-80
2023/10/29 05:02:45;;;;;;;0.93;0.85;;;;;;;;;;10449631;28;20237;-75
2023/10/29 05:07:46;;;;;;;2.60;1.00;;;;;;;;;;10463367;28;20226;-79
2023/10/29 05:12:47;;;;;;;0.90;0.90;;;;;;;;;;10451275;28;20665;-76
2023/10/29 05:17:48;;;;;;;1.15;0.80;;;;;;;;;;10462078;28;20225;-76
2023/10/29 05:22:49;;;;;;;1.35;1.25;;;;;;;;;;10450938;28;20823;-75
2023/10/29 05:27:54;;;;;;;0.85;0.70;;;;;;;;;;10464673;28;20775;-75
2023/10/29 05:32:55;;;;;;;0.70;0.70;;;;;;;;;;10450923;28;20214;-75
2023/10/29 05:37:56;;;;;;;4.10;0.60;;;;;;;;;;10448870;28;20621;-74
2023/10/29 05:42:57;;;;;;;3.25;0.70;;;;;;;;;;10446103;28;20233;-76
2023/10/29 05:47:58;;;;;;;1.17;0.75;;;;;;;;;;10467710;28;20809;-78
2023/10/29 05:52:59;;;;;;;1.63;0.70;;;;;;;;;;10441486;28;20210;-78
2023/10/29 05:58:00;;;;;;;0.82;0.60;;;;;;;;;;10448158;28;20617;-78
2023/10/29 06:03:01;;;;;;;0.60;0.60;;;;;;;;;;10446189;28;20770;-78
2023/10/29 06:08:05;;;;;;;0.85;0.70;;;;;;;;;;10467432;28;20293;-76
2023/10/29 06:13:06;;;;;;;0.68;0.60;;;;;;;;;;10446169;28;20241;-76
2023/10/29 06:18:07;;;;;;;1.80;0.70;;;;;;;;;;10463603;28;20619;-76
2023/10/29 06:23:08;;;;;;;1.23;0.77;;;;;;;;;;10452377;28;20267;-74
2023/10/29 06:28:09;;;;;;;3.40;0.65;;;;;;;;;;10462369;28;20595;-76
2023/10/29 06:33:10;;;;;;;1.40;0.70;;;;;;;;;;10449023;28;20298;-75
2023/10/29 06:38:11;;;;;;;0.80;0.80;;;;;;;;;;10453397;28;20336;-75
2023/10/29 06:43:12;;;;;;;2.17;0.80;;;;;;;;;;10455816;28;20206;-75
2023/10/29 06:48:13;;;;;;;2.58;0.75;;;;;;;;;;10453688;28;20417;-75
2023/10/29 06:53:15;;;;;;;2.83;0.70;;;;;;;;;;10455640;28;20252;-76
2023/10/29 06:58:17;;;;;;;1.33;0.88;;;;;;;;;;10460302;28;20320;-75
2023/10/29 07:03:18;;;;;;;1.25;0.75;;;;;;;;;;10454855;28;20218;-74
2023/10/29 07:08:19;;;;;;;0.85;0.73;;;;;;;;;;10454089;28;20313;-75
2023/10/29 07:13:20;;;;;;;0.43;0.43;;;;;;;;;;10445896;28;20275;-75
2023/10/29 07:18:22;;;;;;;2.47;1.05;;;;;;;;;;10450493;28;20209;-76
2023/10/29 07:23:24;;;;;;;1.33;0.50;;;;;;;;;;10433780;28;20704;-76
2023/10/29 07:28:25;;;;;;;0.63;0.60;;;;;;;;;;10417767;28;20325;-75
2023/10/29 07:33:26;;;;;;;0.93;0.50;;;;;;;;;;10446436;28;20230;-76
2023/10/29 07:38:27;;;;;;;0.68;0.68;;;;;;;;;;10446029;28;20213;-76
2023/10/29 07:43:28;;;;;;;0.60;0.60;;;;;;;;;;10450810;28;20245;-74
2023/10/29 07:48:29;;;;;;;0.55;0.47;;;;;;;;;;10433424;28;20218;-76
2023/10/29 07:53:30;;;;;;;0.95;0.52;;;;;;;;;;10452756;28;20276;-74
2023/10/29 07:58:31;;;;;;;0.68;0.68;;;;;;;;;;10457910;28;20218;-74
2023/10/29 08:03:32;;;;;;;1.30;0.50;;;;;;;;;;10442320;28;20212;-74
2023/10/29 08:08:33;;;;;;;1.70;0.50;;;;;;;;;;10454926;28;20217;-74
2023/10/29 08:13:34;;;;;;;0.75;0.52;;;;;;;;;;10447845;28;20593;-73
2023/10/29 08:18:36;;;;;;;1.27;0.50;;;;;;;;;;10438920;28;20214;-75
2023/10/29 08:23:37;;;;;;;1.55;0.57;;;;;;;;;;10452814;28;20722;-75
2023/10/29 08:28:38;;;;;;;0.43;0.30;;;;;;;;;;10439537;28;20724;-75
2023/10/29 08:33:39;;;;;;;0.70;0.70;;;;;;;;;;10410566;28;20211;-74
2023/10/29 08:38:40;;;;;;;0.30;0.30;;;;;;;;;;10411244;28;20202;-78
2023/10/29 08:43:41;;;;;;;1.75;0.40;;;;;;;;;;10402070;28;20257;-76
2023/10/29 08:48:42;;;;;;;0.40;0.40;;;;;;;;;;10405218;28;20214;-76
2023/10/29 08:53:43;;;;;;;0.95;0.47;;;;;;;;;;10402964;28;20219;-77
2023/10/29 08:58:44;;;;;;;0.40;0.40;;;;;;;;;;10422653;28;20705;-77
2023/10/29 09:03:45;;;;;;;0.77;0.43;;;;;;;;;;10420624;28;20500;-75
2023/10/29 09:08:46;;;;;;;0.30;0.30;;;;;;;;;;10423527;28;20211;-76
2023/10/29 09:13:47;;;;;;;0.30;0.30;;;;;;;;;;10415133;28;20215;-75
2023/10/29 09:18:48;;;;;;;0.30;0.30;;;;;;;;;;10417531;28;20752;-76
2023/10/29 09:23:49;;;;;;;0.55;0.30;;;;;;;;;;10422142;28;20304;-76
2023/10/29 09:28:51;;;;;;;0.50;0.50;;;;;;;;;;10408960;28;20414;-75
2023/10/29 09:33:52;;;;;;;0.40;0.40;;;;;;;;;;10417098;28;20217;-75
2023/10/29 09:38:53;;;;;;;0.85;0.30;;;;;;;;;;10419887;28;20209;-76
2023/10/29 09:43:54;;;;;;;0.30;0.30;;;;;;;;;;10420269;28;20604;-76
2023/10/29 09:48:55;;;;;;;0.75;0.40;;;;;;;;;;10408804;28;20751;-75
2023/10/29 09:53:59;;;;;;;0.30;0.30;;;;;;;;;;10420522;28;20591;-76
2023/10/29 09:59:02;;;;;;;0.85;0.40;;;;;;;;;;10422337;28;20703;-75
2023/10/29 10:04:04;;;;;;;0.30;0.20;;;;;;;;;;10413247;28;20781;-76
2023/10/29 10:09:05;;;;;;;0.73;0.40;;;;;;;;;;10422478;28;20273;-75
2023/10/29 10:14:06;;;;;;;0.30;0.30;;;;;;;;;;10415492;28;20219;-76
2023/10/29 10:19:08;;;;;;;3.92;0.63;;;;;;;;;;10417329;28;20221;-76
2023/10/29 10:24:09;;;;;;;0.38;0.38;;;;;;;;;;10409672;28;20223;-76
2023/10/29 10:29:11;;;;;;;0.32;0.30;;;;;;;;;;10437009;28;20860;-75
2023/10/29 10:34:14;;;;;;;0.20;0.20;;;;;;;;;;10454813;28;20341;-76
2023/10/29 10:39:15;;;;;;;0.30;0.30;;;;;;;;;;10460520;28;20241;-76
2023/10/29 10:44:16;;;;;;;0.57;0.35;;;;;;;;;;10438183;28;20218;-76
2023/10/29 10:49:18;;;;;;;0.30;0.30;;;;;;;;;;10444401;28;20218;-78
2023/10/29 10:54:19;;;;;;;0.25;0.20;;;;;;;;;;10440229;28;20225;-74
2023/10/29 10:59:21;;;;;;;0.30;0.30;;;;;;;;;;10460730;28;20728;-77
2023/10/29 11:04:23;;;;;;;0.20;0.20;;;;;;;;;;10449827;28;20222;-73
2023/10/29 11:09:25;;;;;;;3.42;0.30;;;;;;;;;;10449107;28;20202;-74
2023/10/29 11:14:26;;;;;;;0.20;0.20;;;;;;;;;;10435667;28;20593;-73
2023/10/29 11:19:43;;;;;;;0.35;0.20;;;;;;;;;;10452657;28;20301;-73
2023/10/29 11:24:45;;;;;;;0.85;0.30;;;;;;;;;;10434884;28;20210;-73
2023/10/29 11:29:46;;;;;;;1.38;0.20;;;;;;;;;;10455438;28;20762;-73
2023/10/29 11:34:47;;;;;;;0.20;0.20;;;;;;;;;;10455740;28;20713;-73
2023/10/29 11:39:48;;;;;;;0.20;0.20;;;;;;;;;;10455591;28;20214;-75
2023/10/29 11:44:50;;;;;;;1.10;0.17;;;;;;;;;;10452121;28;20930;-74
2023/10/29 11:49:55;;;;;;;0.10;0.10;;;;;;;;;;10447879;28;20244;-74
2023/10/29 11:55:02;;;;;;;3.42;0.43;;;;;;;;;;10449774;28;20214;-73
2023/10/29 12:00:03;;;;;;;0.15;0.15;;;;;;;;;;10451487;28;20198;-73
2023/10/29 12:05:12;;;;;;;1.20;0.20;;;;;;;;;;10450210;28;20228;-73
2023/10/29 12:10:13;;;;;;;0.20;0.20;;;;;;;;;;10442407;28;20427;-73
2023/10/29 12:15:15;;;;;;;0.30;0.30;;;;;;;;;;10452721;28;20966;-73
2023/10/29 12:20:23;;;;;;;0.10;0.10;;;;;;;;;;10447148;28;20179;-73
2023/10/29 12:25:25;;;;;;;0.20;0.15;;;;;;;;;;10453126;28;20294;-73
2023/10/29 12:30:42;;;;;;;0.20;0.20;;;;;;;;;;10454891;28;20230;-73
2023/10/29 12:35:43;;;;;;;0.20;0.20;;;;;;;;;;10451131;28;20260;-73
2023/10/29 12:41:04;;;;;;;0.20;0.20;;;;;;;;;;10452449;28;20217;-74
2023/10/29 12:46:10;;;;;;;0.63;0.20;;;;;;;;;;10454633;28;20225;-74
2023/10/29 12:51:11;;;;;;;0.20;0.20;;;;;;;;;;10460152;28;20280;-76
2023/10/29 12:56:14;;;;;;;0.20;0.20;;;;;;;;;;10454110;28;21096;-72
2023/10/29 13:01:17;;;;;;;0.35;0.30;;;;;;;;;;10460030;28;20268;-73
2023/10/29 13:06:20;;;;;;;0.20;0.20;;;;;;;;;;10456032;28;20791;-71
2023/10/29 13:11:21;;;;;;;0.47;0.20;;;;;;;;;;10440394;28;20781;-75
2023/10/29 13:16:22;;;;;;;0.60;0.20;;;;;;;;;;10453537;28;20228;-75
2023/10/29 13:21:26;;;;;;;2.08;0.30;;;;;;;;;;10460242;28;20238;-74
2023/10/29 13:26:27;;;;;;;0.30;0.30;;;;;;;;;;10461922;28;20227;-74
2023/10/29 13:31:28;;;;;;;0.90;0.20;;;;;;;;;;10464639;28;20214;-73
2023/10/29 13:36:29;;;;;;;0.13;0.13;;;;;;;;;;10440321;28;20241;-73
2023/10/29 13:41:30;;;;;;;0.22;0.22;;;;;;;;;;10452245;28;20221;-73
2023/10/29 13:46:32;;;;;;;0.43;0.22;;;;;;;;;;10440740;28;20297;-73
2023/10/29 13:51:33;;;;;;;0.25;0.25;;;;;;;;;;10435343;28;20701;-73
2023/10/29 13:56:34;;;;;;;0.57;0.30;;;;;;;;;;10462421;28;20249;-73
2023/10/29 14:01:35;;;;;;;0.20;0.20;;;;;;;;;;10435580;28;20656;-73
2023/10/29 14:06:36;;;;;;;0.22;0.22;;;;;;;;;;10462783;28;20593;-73
2023/10/29 14:11:37;;;;;;;0.20;0.20;;;;;;;;;;10443019;28;20207;-75
2023/10/29 14:16:39;;;;;;;0.20;0.20;;;;;;;;;;10451090;28;20237;-72
2023/10/29 14:21:40;;;;;;;0.20;0.20;;;;;;;;;;10453185;28;20221;-72
2023/10/29 14:26:42;;;;;;;0.20;0.20;;;;;;;;;;10454231;28;20254;-74
2023/10/29 14:31:43;;;;;;;0.38;0.10;;;;;;;;;;10453554;28;20253;-73
2023/10/29 14:36:44;;;;;;;2.53;0.22;;;;;;;;;;10461955;28;20254;-73
2023/10/29 14:41:46;;;;;;;0.75;0.20;;;;;;;;;;10464552;28;20210;-73
2023/10/29 14:46:47;;;;;;;0.57;0.20;;;;;;;;;;10453085;28;20826;-74
2023/10/29 14:51:48;;;;;;;0.30;0.30;;;;;;;;;;10434391;28;20214;-74
2023/10/29 14:56:49;;;;;;;0.20;0.20;;;;;;;;;;10440561;28;20395;-74
2023/10/29 15:01:51;;;;;;;0.75;0.20;;;;;;;;;;10450777;28;20765;-74
2023/10/29 15:06:52;;;;;;;0.80;0.20;;;;;;;;;;10448018;28;20214;-73
2023/10/29 15:11:56;;;;;;;0.30;0.30;;;;;;;;;;10444497;28;20317;-73
2023/10/29 15:16:57;;;;;;;0.20;0.20;;;;;;;;;;10450128;28;20907;-73
2023/10/29 15:21:58;;;;;;;2.05;0.25;;;;;;;;;;10451803;28;20206;-74
2023/10/29 15:26:59;;;;;;;0.20;0.20;;;;;;;;;;10452883;28;20325;-74
2023/10/29 15:32:01;;;;;;;0.30;0.30;;;;;;;;;;10451926;28;20240;-74
2023/10/29 15:37:02;;;;;;;0.30;0.30;;;;;;;;;;10427288;28;20672;-74
2023/10/29 15:42:03;;;;;;;0.45;0.28;;;;;;;;;;10428081;28;20305;-73
2023/10/29 15:47:04;;;;;;;0.70;0.70;;;;;;;;;;10449246;28;20716;-73
2023/10/29 15:52:05;;;;;;;0.55;0.55;;;;;;;;;;10454329;28;20225;-73
2023/10/29 15:57:06;;;;;;;0.38;0.30;;;;;;;;;;10433783;28;20217;-74
2023/10/29 16:02:08;;;;;;;1.20;0.50;;;;;;;;;;10451627;28;20218;-73
2023/10/29 16:07:09;;;;;;;0.50;0.40;;;;;;;;;;10431798;28;20737;-73
2023/10/29 16:12:10;;;;;;;0.57;0.50;;;;;;;;;;10450924;28;20259;-76
2023/10/29 16:17:13;;;;;;;0.55;0.55;;;;;;;;;;10448077;28;20219;-74
2023/10/29 16:22:15;;;;;;;0.40;0.40;;;;;;;;;;10449140;28;20237;-74
2023/10/29 16:27:16;;;;;;;0.20;0.20;;;;;;;;;;10451091;28;20235;-76
2023/10/29 16:32:18;;;;;;;1.85;0.40;;;;;;;;;;10456181;28;20317;-74
2023/10/29 16:37:19;;;;;;;0.32;0.32;;;;;;;;;;10464530;28;20244;-74
2023/10/29 16:42:20;;;;;;;0.47;0.47;;;;;;;;;;10459439;28;20287;-74
2023/10/29 16:47:21;;;;;;;0.40;0.40;;;;;;;;;;10458425;28;20271;-74
2023/10/29 16:52:22;;;;;;;0.30;0.30;;;;;;;;;;10459283;28;20245;-73
2023/10/29 16:57:23;;;;;;;0.20;0.20;;;;;;;;;;10436956;28;20249;-73
2023/10/29 17:02:24;;;;;;;1.40;0.50;;;;;;;;;;10461035;28;20283;-74
2023/10/29 17:07:26;;;;;;;0.28;0.28;;;;;;;;;;10459359;28;20225;-73
2023/10/29 17:12:27;;;;;;;0.40;0.40;;;;;;;;;;10460765;28;20793;-75
2023/10/29 17:17:28;;;;;;;0.40;0.40;;;;;;;;;;10462523;28;20232;-73
2023/10/29 17:22:29;;;;;;;2.47;0.30;;;;;;;;;;10459635;28;20214;-73
2023/10/29 17:27:32;;;;;;;0.30;0.30;;;;;;;;;;10464867;28;20248;-75
2023/10/29 17:32:33;;;;;;;0.63;0.55;;;;;;;;;;10460961;28;20210;-75
2023/10/29 17:37:35;;;;;;;0.30;0.30;;;;;;;;;;10437992;28;20325;-73
2023/10/29 17:42:36;;;;;;;0.50;0.50;;;;;;;;;;10448827;28;20218;-74
2023/10/29 17:47:37;;;;;;;0.65;0.20;;;;;;;;;;10457137;28;20226;-76
2023/10/29 17:52:40;;;;;;;0.75;0.40;;;;;;;;;;10459936;28;21149;-75
2023/10/29 17:57:41;;;;;;;0.30;0.30;;;;;;;;;;10448405;28;20222;-76
2023/10/29 18:02:42;;;;;;;0.10;0.10;;;;;;;;;;10454537;28;20209;-75
2023/10/29 18:07:43;;;;;;;1.08;0.20;;;;;;;;;;10454060;28;20224;-74
2023/10/29 18:12:45;;;;;;;0.10;0.10;;;;;;;;;;10439169;28;20911;-75
2023/10/29 18:17:46;;;;;;;0.10;0.10;;;;;;;;;;10454423;28;20227;-74
2023/10/29 18:22:47;;;;;;;0.70;0.20;;;;;;;;;;10453632;28;20224;-74
2023/10/29 18:27:48;;;;;;;0.10;0.10;;;;;;;;;;10458229;28;20234;-73
2023/10/29 18:32:52;;;;;;;0.10;0.10;;;;;;;;;;10450517;28;20219;-76
2023/10/29 18:37:53;;;;;;;0.10;0.10;;;;;;;;;;10455534;28;20221;-75
2023/10/29 18:42:54;;;;;;;0.20;0.10;;;;;;;;;;10464136;28;20644;-74
2023/10/29 18:47:56;;;;;;;0.10;0.10;;;;;;;;;;10454246;28;20215;-74
2023/10/29 18:52:57;;;;;;;0.10;0.10;;;;;;;;;;10457334;28;20827;-73
2023/10/29 18:57:58;;;;;;;0.10;0.10;;;;;;;;;;10453318;28;20707;-74
2023/10/29 19:02:59;;;;;;;0.10;0.10;;;;;;;;;;10454041;28;20706;-73
2023/10/29 19:08:00;;;;;;;0.00;0.00;;;;;;;;;;10452111;28;20217;-76
2023/10/29 19:13:02;;;;;;;0.43;0.20;;;;;;;;;;10434188;28;20217;-74
2023/10/29 19:18:04;;;;;;;0.10;0.10;;;;;;;;;;10448749;28;20320;-75
2023/10/29 19:23:05;;;;;;;0.10;0.10;;;;;;;;;;10458451;28;20229;-77
2023/10/29 19:28:06;;;;;;;0.90;0.65;;;;;;;;;;10460697;28;20245;-77
2023/10/29 19:33:07;;;;;;;0.70;0.50;;;;;;;;;;10452715;28;20288;-76
2023/10/29 19:38:08;;;;;;;0.10;0.10;;;;;;;;;;10449016;28;20224;-77
2023/10/29 19:43:09;;;;;;;0.10;0.10;;;;;;;;;;10453671;28;20211;-77
2023/10/29 19:48:10;;;;;;;0.10;0.10;;;;;;;;;;10463034;28;20236;-77
2023/10/29 19:53:13;;;;;;;0.05;0.05;;;;;;;;;;10453532;28;20264;-76
2023/10/29 19:58:14;;;;;;;0.38;0.10;;;;;;;;;;10455061;28;21110;-77
2023/10/29 20:03:16;;;;;;;0.38;0.20;;;;;;;;;;10448724;28;20210;-77
2023/10/29 20:08:17;;;;;;;0.10;0.10;;;;;;;;;;10441246;28;20228;-77
2023/10/29 20:13:18;;;;;;;0.10;0.10;;;;;;;;;;10450811;28;20214;-77
2023/10/29 20:18:19;;;;;;;0.10;0.10;;;;;;;;;;10445708;28;20984;-76
2023/10/29 20:23:20;;;;;;;0.05;0.05;;;;;;;;;;10456061;28;20210;-76
2023/10/29 20:28:21;;;;;;;0.30;0.08;;;;;;;;;;10438891;28;20283;-76
2023/10/29 20:33:22;;;;;;;0.10;0.10;;;;;;;;;;10452018;28;20262;-77
2023/10/29 20:38:23;;;;;;;1.00;0.10;;;;;;;;;;10453533;28;20653;-77
2023/10/29 20:43:24;;;;;;;1.05;0.10;;;;;;;;;;10459003;28;20209;-76
2023/10/29 20:48:25;;;;;;;0.75;0.10;;;;;;;;;;10459732;28;20318;-76
2023/10/29 20:53:26;;;;;;;0.10;0.10;;;;;;;;;;10454603;28;20249;-76
2023/10/29 20:58:27;;;;;;;0.10;0.10;;;;;;;;;;10459040;28;20206;-76
2023/10/29 21:03:28;;;;;;;1.65;0.10;;;;;;;;;;10447730;28;20218;-76
2023/10/29 21:08:29;;;;;;;0.10;0.10;;;;;;;;;;10467065;28;20665;-77
2023/10/29 21:13:31;;;;;;;0.73;0.20;;;;;;;;;;10466028;28;20201;-77
2023/10/29 21:18:32;;;;;;;0.10;0.10;;;;;;;;;;10463423;28;20210;-77
2023/10/29 21:23:34;;;;;;;0.10;0.10;;;;;;;;;;10462724;28;20215;-77
2023/10/29 21:28:35;;;;;;;1.00;0.10;;;;;;;;;;10448527;28;20625;-76
2023/10/29 21:33:36;;;;;;;0.25;0.10;;;;;;;;;;10449206;28;20688;-76
2023/10/29 21:38:37;;;;;;;4.00;0.30;;;;;;;;;;10462477;28;20214;-76
2023/10/29 21:43:39;;;;;;;0.00;0.00;;;;;;;;;;10462691;28;20294;-77
2023/10/29 21:48:40;;;;;;;0.03;0.03;;;;;;;;;;10465383;28;20293;-76
2023/10/29 21:53:41;;;;;;;0.10;0.10;;;;;;;;;;10432614;28;20296;-77
2023/10/29 21:58:42;;;;;;;0.10;0.10;;;;;;;;;;10447101;28;20214;-76
2023/10/29 22:03:43;;;;;;;0.10;0.10;;;;;;;;;;10462368;28;20210;-76
2023/10/29 22:08:44;;;;;;;1.67;0.10;;;;;;;;;;10460659;28;20214;-76
2023/10/29 22:13:46;;;;;;;0.13;0.10;;;;;;;;;;10423053;28;20214;-76
2023/10/29 22:18:47;;;;;;;0.10;0.10;;;;;;;;;;10421832;28;20218;-76
2023/10/29 22:23:48;;;;;;;1.25;0.30;;;;;;;;;;10423449;28;20592;-76
2023/10/29 22:28:49;;;;;;;0.20;0.10;;;;;;;;;;10421922;28;20341;-76
2023/10/29 22:33:50;;;;;;;1.55;0.10;;;;;;;;;;10454783;28;20217;-76
2023/10/29 22:38:51;;;;;;;0.10;0.10;;;;;;;;;;10453654;28;20203;-76
2023/10/29 22:43:53;;;;;;;0.35;0.00;;;;;;;;;;10463248;28;20205;-76
2023/10/29 22:48:54;;;;;;;0.10;0.10;;;;;;;;;;10462973;28;20219;-76
2023/10/29 22:53:55;;;;;;;2.45;0.10;;;;;;;;;;10457640;28;20226;-74
2023/10/29 22:58:56;;;;;;;0.85;0.10;;;;;;;;;;10455371;28;20271;-79
2023/10/29 23:03:58;;;;;;;0.20;0.20;;;;;;;;;;10461423;28;20210;-79
2023/10/29 23:08:59;;;;;;;0.10;0.10;;;;;;;;;;10464953;28;20201;-79
2023/10/29 23:14:00;;;;;;;1.00;0.10;;;;;;;;;;10465056;28;20222;-79
2023/10/29 23:19:01;;;;;;;0.25;0.17;;;;;;;;;;10462388;28;20210;-79
2023/10/29 23:24:02;;;;;;;0.10;0.10;;;;;;;;;;10463783;28;20295;-78
2023/10/29 23:29:03;;;;;;;0.10;0.10;;;;;;;;;;10462508;28;20265;-78
2023/10/29 23:34:04;;;;;;;1.67;0.10;;;;;;;;;;10446187;28;20282;-79
2023/10/29 23:39:05;;;;;;;0.65;0.20;;;;;;;;;;10462064;28;20229;-80
2023/10/29 23:44:06;;;;;;;1.27;0.25;;;;;;;;;;10461386;28;20217;-76
2023/10/29 23:49:08;;;;;;;0.10;0.10;;;;;;;;;;10461127;28;20253;-76
2023/10/29 23:54:09;;;;;;;0.55;0.20;;;;;;;;;;10467652;28;20277;-77
2023/10/29 23:59:10;;;;;;;0.73;0.20;;;;;;;;;;10450230;28;20271;-78
